createdAt,value
2023-04-09T00:00:38.893Z,27.13
2023-04-09T00:03:05.153Z,28.05
2023-04-09T00:05:31.156Z,27.17
2023-04-09T00:07:57.076Z,26.15
2023-04-09T00:10:23.016Z,27.60
2023-04-09T00:12:49.036Z,26.80
2023-04-09T00:15:27.773Z,27.90
2023-04-09T00:17:56.416Z,26.95
2023-04-09T00:20:22.401Z,27.67
2023-04-09T00:22:49.180Z,26.45
2023-04-09T00:25:15.258Z,28.58
2023-04-09T00:27:41.167Z,27.27
2023-04-09T00:30:07.851Z,27.70
2023-04-09T00:32:33.744Z,26.98
2023-04-09T00:34:59.684Z,27.75
2023-04-09T00:37:25.741Z,29.25
2023-04-09T00:39:51.693Z,26.88
2023-04-09T00:42:17.649Z,27.33
2023-04-09T00:44:43.681Z,27.17
2023-04-09T00:47:10.098Z,26.52
2023-04-09T00:49:36.163Z,26.00
2023-04-09T00:52:02.227Z,25.88
2023-04-09T00:54:28.206Z,25.70
2023-04-09T00:56:56.150Z,25.35
2023-04-09T00:59:24.144Z,25.70
2023-04-09T01:01:50.177Z,24.85
2023-04-09T01:04:16.670Z,25.55
2023-04-09T01:06:50.864Z,26.10
2023-04-09T01:09:27.860Z,25.25
2023-04-09T01:12:18.357Z,25.35
2023-04-09T01:15:02.566Z,24.27
2023-04-09T01:17:43.723Z,22.63
2023-04-09T01:20:12.979Z,23.60
2023-04-09T01:22:59.442Z,23.33
2023-04-09T01:25:28.162Z,23.55
2023-04-09T01:28:25.296Z,24.65
2023-04-09T01:30:56.987Z,23.15
2023-04-09T01:33:24.892Z,23.13
2023-04-09T01:35:52.782Z,21.83
2023-04-09T01:38:21.189Z,23.48
2023-04-09T01:40:49.073Z,22.60
2023-04-09T01:43:15.323Z,21.75
2023-04-09T01:45:43.638Z,21.55
2023-04-09T01:48:09.971Z,21.80
2023-04-09T01:50:36.719Z,23.00
2023-04-09T01:53:03.488Z,20.90
2023-04-09T01:55:29.472Z,20.83
2023-04-09T01:57:55.475Z,19.83
2023-04-09T02:00:22.495Z,20.67
2023-04-09T02:02:55.402Z,18.27
2023-04-09T02:05:26.453Z,18.05
2023-04-09T02:07:55.613Z,17.00
2023-04-09T02:10:28.589Z,16.00
2023-04-09T02:12:55.802Z,14.57
2023-04-09T02:15:24.102Z,15.82
2023-04-09T02:17:50.080Z,14.68
2023-04-09T02:20:26.197Z,14.15
2023-04-09T02:22:57.339Z,13.73
2023-04-09T02:25:24.559Z,14.13
2023-04-09T02:27:50.471Z,14.55
2023-04-09T02:30:16.339Z,13.85
2023-04-09T02:32:42.314Z,13.20
2023-04-09T02:35:08.368Z,12.18
2023-04-09T02:37:34.261Z,11.35
2023-04-09T02:40:00.155Z,13.02
2023-04-09T02:42:26.084Z,12.35
2023-04-09T02:44:51.993Z,12.10
2023-04-09T02:47:17.984Z,11.50
2023-04-09T02:49:43.918Z,12.23
2023-04-09T02:52:10.710Z,11.60
2023-04-09T02:54:36.691Z,11.85
2023-04-09T02:57:02.623Z,13.27
2023-04-09T02:59:28.621Z,11.60
2023-04-09T03:01:54.557Z,11.13
2023-04-09T03:04:20.579Z,10.95
2023-04-09T03:06:46.529Z,11.45
2023-04-09T03:09:12.421Z,11.10
2023-04-09T03:11:38.351Z,10.50
2023-04-09T03:14:04.290Z,10.73
2023-04-09T03:16:30.231Z,10.93
2023-04-09T03:18:56.174Z,11.25
2023-04-09T03:21:22.126Z,11.65
2023-04-09T03:23:48.089Z,11.38
2023-04-09T03:26:13.966Z,11.85
2023-04-09T03:28:39.974Z,11.90
2023-04-09T03:31:05.926Z,11.68
2023-04-09T03:33:31.904Z,11.38
2023-04-09T03:35:57.896Z,11.68
2023-04-09T03:38:23.949Z,12.00
2023-04-09T03:40:50.001Z,12.60
2023-04-09T03:43:15.920Z,13.57
2023-04-09T03:45:41.887Z,12.88
2023-04-09T03:48:07.790Z,12.38
2023-04-09T03:50:41.108Z,12.70
2023-04-09T03:53:07.336Z,12.38
2023-04-09T03:55:33.585Z,14.38
2023-04-09T03:57:59.598Z,13.57
2023-04-09T04:00:25.653Z,12.95
2023-04-09T04:02:52.020Z,14.05
2023-04-09T04:05:18.308Z,14.45
2023-04-09T04:07:44.556Z,13.77
2023-04-09T04:10:10.762Z,14.45
2023-04-09T04:12:36.690Z,15.10
2023-04-09T04:15:02.865Z,14.70
2023-04-09T04:17:28.887Z,14.60
2023-04-09T04:19:54.927Z,14.25
2023-04-09T04:22:20.799Z,14.38
2023-04-09T04:24:46.760Z,14.90
2023-04-09T04:27:12.637Z,14.50
2023-04-09T04:29:38.552Z,15.15
2023-04-09T04:32:04.802Z,14.93
2023-04-09T04:34:30.814Z,14.32
2023-04-09T04:36:56.708Z,15.52
2023-04-09T04:39:22.626Z,15.77
2023-04-09T04:41:48.538Z,16.08
2023-04-09T04:44:14.412Z,14.60
2023-04-09T04:46:40.316Z,14.57
2023-04-09T04:49:06.194Z,15.00
2023-04-09T04:51:32.099Z,16.40
2023-04-09T04:53:58.018Z,16.10
2023-04-09T04:56:23.978Z,17.67
2023-04-09T04:58:50.206Z,15.32
2023-04-09T05:01:16.469Z,16.75
2023-04-09T05:03:42.547Z,15.48
2023-04-09T05:06:08.567Z,16.40
2023-04-09T05:08:34.627Z,17.65
2023-04-09T05:11:00.544Z,18.23
2023-04-09T05:13:26.489Z,18.27
2023-04-09T05:15:52.487Z,17.58
2023-04-09T05:18:18.438Z,19.25
2023-04-09T05:20:44.434Z,18.10
2023-04-09T05:23:11.867Z,18.58
2023-04-09T05:25:38.793Z,18.42
2023-04-09T05:28:04.931Z,18.17
2023-04-09T05:30:30.934Z,17.10
2023-04-09T05:32:56.895Z,17.23
2023-04-09T05:35:22.796Z,17.42
2023-04-09T05:37:48.726Z,17.60
2023-04-09T05:40:14.978Z,17.17
2023-04-09T05:42:40.981Z,19.00
2023-04-09T05:45:07.644Z,19.60
2023-04-09T05:47:33.513Z,18.65
2023-04-09T05:50:01.589Z,18.77
2023-04-09T05:52:27.776Z,18.02
2023-04-09T05:54:53.673Z,19.40
2023-04-09T05:57:19.593Z,17.92
2023-04-09T05:59:45.507Z,18.33
2023-04-09T06:02:11.535Z,18.25
2023-04-09T06:04:37.684Z,18.05
2023-04-09T06:07:05.906Z,17.27
2023-04-09T06:09:31.826Z,16.95
2023-04-09T06:11:57.871Z,17.85
2023-04-09T06:14:23.975Z,18.92
2023-04-09T06:16:49.899Z,18.42
2023-04-09T06:19:16.132Z,19.75
2023-04-09T06:21:42.073Z,17.70
2023-04-09T06:24:07.996Z,17.42
2023-04-09T06:26:34.014Z,17.80
2023-04-09T06:28:59.910Z,17.40
2023-04-09T06:31:25.925Z,18.08
2023-04-09T06:33:52.239Z,18.08
2023-04-09T06:36:18.356Z,18.75
2023-04-09T06:38:44.265Z,17.63
2023-04-09T06:41:12.031Z,17.35
2023-04-09T06:43:38.472Z,16.75
2023-04-09T06:46:04.627Z,18.83
2023-04-09T06:48:30.682Z,18.15
2023-04-09T06:50:56.682Z,17.83
2023-04-09T06:53:22.741Z,18.08
2023-04-09T06:55:48.780Z,18.55
2023-04-09T06:58:15.756Z,17.27
2023-04-09T07:00:41.809Z,17.70
2023-04-09T07:03:08.578Z,17.40
2023-04-09T07:05:35.331Z,18.42
2023-04-09T07:08:01.348Z,18.15
2023-04-09T07:10:27.267Z,17.30
2023-04-09T07:12:53.207Z,17.52
2023-04-09T07:15:19.232Z,16.77
2023-04-09T07:17:45.294Z,18.42
2023-04-09T07:20:11.523Z,17.48
2023-04-09T07:22:37.548Z,16.70
2023-04-09T07:25:04.023Z,17.55
2023-04-09T07:27:29.964Z,17.65
2023-04-09T07:29:59.472Z,18.58
2023-04-09T07:32:27.274Z,17.67
2023-04-09T07:34:54.527Z,17.45
2023-04-09T07:37:20.911Z,17.70
2023-04-09T07:39:49.189Z,18.70
2023-04-09T07:42:15.445Z,18.02
2023-04-09T07:44:41.384Z,17.52
2023-04-09T07:47:07.877Z,18.85
2023-04-09T07:49:35.775Z,18.42
2023-04-09T07:52:01.742Z,18.25
2023-04-09T07:54:28.002Z,17.92
2023-04-09T07:56:54.132Z,18.08
2023-04-09T07:59:20.148Z,16.85
2023-04-09T08:01:46.226Z,18.70
2023-04-09T08:04:13.244Z,18.70
2023-04-09T08:06:39.690Z,18.88
2023-04-09T08:09:05.722Z,18.30
2023-04-09T08:11:31.776Z,17.90
2023-04-09T08:14:00.688Z,18.63
2023-04-09T08:16:27.342Z,18.33
2023-04-09T08:18:53.856Z,17.67
2023-04-09T08:21:20.066Z,17.92
2023-04-09T08:23:46.031Z,17.73
2023-04-09T08:26:11.930Z,17.77
2023-04-09T08:28:37.828Z,17.02
2023-04-09T08:31:03.997Z,18.15
2023-04-09T08:33:31.189Z,18.58
2023-04-09T08:35:57.266Z,15.05
2023-04-09T08:38:23.211Z,14.88
2023-04-09T08:40:49.217Z,16.27
2023-04-09T08:43:15.941Z,16.17
2023-04-09T08:45:42.685Z,11.90
2023-04-09T08:48:13.654Z,10.05
2023-04-09T08:50:40.100Z,8.02
2023-04-09T08:53:08.984Z,8.27
2023-04-09T08:55:36.560Z,8.77
2023-04-09T08:58:09.939Z,9.80
2023-04-09T09:00:37.243Z,9.43
2023-04-09T09:03:08.151Z,10.25
2023-04-09T09:05:42.529Z,9.98
2023-04-09T09:08:21.871Z,10.37
2023-04-09T09:10:48.022Z,9.00
2023-04-09T09:13:27.304Z,9.27
2023-04-09T09:16:10.467Z,9.15
2023-04-09T09:18:41.480Z,9.43
2023-04-09T09:21:14.995Z,8.80
2023-04-09T09:23:42.044Z,10.40
2023-04-09T09:26:12.935Z,8.90
2023-04-09T09:28:39.053Z,9.95
2023-04-09T09:31:09.319Z,9.70
2023-04-09T09:33:35.774Z,10.38
2023-04-09T09:36:03.345Z,9.20
2023-04-09T09:38:30.068Z,9.30
2023-04-09T09:40:56.044Z,9.50
2023-04-09T09:43:22.438Z,9.02
2023-04-09T09:45:48.904Z,7.95
2023-04-09T09:48:15.194Z,9.18
2023-04-09T09:50:42.386Z,9.18
2023-04-09T09:53:16.826Z,9.18
2023-04-09T09:55:48.671Z,8.75
2023-04-09T09:58:26.416Z,8.80
2023-04-09T10:00:52.597Z,8.48
2023-04-09T10:03:25.267Z,7.82
2023-04-09T10:05:52.778Z,8.00
2023-04-09T10:08:21.041Z,8.40
2023-04-09T10:10:48.662Z,9.13
2023-04-09T10:13:54.140Z,9.65
2023-04-09T10:16:22.486Z,8.07
2023-04-09T10:18:48.576Z,8.05
2023-04-09T10:21:24.224Z,9.07
2023-04-09T10:23:51.389Z,8.93
2023-04-09T10:26:19.244Z,9.32
2023-04-09T10:28:45.166Z,10.18
2023-04-09T10:31:11.285Z,8.88
2023-04-09T10:33:38.025Z,8.23
2023-04-09T10:36:09.196Z,8.98
2023-04-09T10:38:40.597Z,9.27
2023-04-09T10:41:08.931Z,8.73
2023-04-09T10:43:37.805Z,8.45
2023-04-09T10:46:05.786Z,8.40
2023-04-09T10:48:34.426Z,8.10
2023-04-09T10:51:05.927Z,8.43
2023-04-09T10:53:32.065Z,8.48
2023-04-09T10:55:58.056Z,7.65
2023-04-09T10:58:24.067Z,8.32
2023-04-09T11:00:51.086Z,8.63
2023-04-09T11:03:26.764Z,8.18
2023-04-09T11:06:08.545Z,8.07
2023-04-09T11:08:35.840Z,7.40
2023-04-09T11:11:02.865Z,8.05
2023-04-09T11:13:30.567Z,7.20
2023-04-09T11:16:00.734Z,7.45
2023-04-09T11:18:28.529Z,7.72
2023-04-09T11:20:56.764Z,8.32
2023-04-09T11:23:24.382Z,8.40
2023-04-09T11:25:50.940Z,8.95
2023-04-09T11:28:17.974Z,8.02
2023-04-09T11:30:46.118Z,8.10
2023-04-09T11:33:12.697Z,8.15
2023-04-09T11:35:38.796Z,7.30
2023-04-09T11:38:09.104Z,6.60
2023-04-09T11:40:35.726Z,7.13
2023-04-09T11:43:02.554Z,7.35
2023-04-09T11:45:31.129Z,7.32
2023-04-09T11:47:57.632Z,7.10
2023-04-09T11:50:24.294Z,7.00
2023-04-09T11:52:50.319Z,6.95
2023-04-09T11:55:26.775Z,6.88
2023-04-09T11:57:56.768Z,7.18
2023-04-09T12:00:24.209Z,7.30
2023-04-09T12:03:00.657Z,6.85
2023-04-09T12:05:31.797Z,6.93
2023-04-09T12:08:04.515Z,7.13
2023-04-09T12:10:33.156Z,8.32
2023-04-09T12:13:06.200Z,7.22
2023-04-09T12:15:34.142Z,7.53
2023-04-09T12:18:00.856Z,6.80
2023-04-09T12:20:39.001Z,6.50
2023-04-09T12:23:06.140Z,7.10
2023-04-09T12:25:39.040Z,7.45
2023-04-09T12:28:07.184Z,7.07
2023-04-09T12:30:33.812Z,6.57
2023-04-09T12:33:00.386Z,6.90
2023-04-09T12:35:26.601Z,6.57
2023-04-09T12:37:52.968Z,7.00
2023-04-09T12:40:19.728Z,6.68
2023-04-09T12:42:46.056Z,6.50
2023-04-09T12:45:14.823Z,6.07
2023-04-09T12:47:41.056Z,6.03
2023-04-09T12:50:08.849Z,6.57
2023-04-09T12:52:35.103Z,6.40
2023-04-09T12:55:07.653Z,6.90
2023-04-09T12:57:34.051Z,6.30
2023-04-09T13:00:01.629Z,6.85
2023-04-09T13:02:29.340Z,6.28
2023-04-09T13:04:55.343Z,6.25
2023-04-09T13:07:22.153Z,6.55
2023-04-09T13:09:49.708Z,6.45
2023-04-09T13:12:16.893Z,6.70
2023-04-09T13:14:44.447Z,6.80
2023-04-09T13:17:10.531Z,6.43
2023-04-09T13:19:36.548Z,6.20
2023-04-09T13:22:02.834Z,5.78
2023-04-09T13:24:28.855Z,6.13
2023-04-09T13:26:54.836Z,6.28
2023-04-09T13:29:21.352Z,6.40
2023-04-09T13:31:47.300Z,6.10
2023-04-09T13:34:13.151Z,6.50
2023-04-09T13:36:39.184Z,6.20
2023-04-09T13:39:05.300Z,5.70
2023-04-09T13:41:34.306Z,6.65
2023-04-09T13:44:00.938Z,6.22
2023-04-09T13:46:27.462Z,6.20
2023-04-09T13:48:56.540Z,6.57
2023-04-09T13:51:23.040Z,6.28
2023-04-09T13:53:50.290Z,6.70
2023-04-09T13:56:16.194Z,6.45
2023-04-09T13:58:43.186Z,6.13
2023-04-09T14:01:10.650Z,6.43
2023-04-09T14:03:40.049Z,6.65
2023-04-09T14:06:10.247Z,6.22
2023-04-09T14:08:36.523Z,5.78
2023-04-09T14:11:03.045Z,5.70
2023-04-09T14:13:29.140Z,5.63
2023-04-09T14:15:55.578Z,6.13
2023-04-09T14:18:21.738Z,6.25
2023-04-09T14:20:47.742Z,5.43
2023-04-09T14:23:13.774Z,6.13
2023-04-09T14:25:39.757Z,5.45
2023-04-09T14:28:05.952Z,5.95
2023-04-09T14:30:32.175Z,5.90
2023-04-09T14:32:58.378Z,6.30
2023-04-09T14:35:24.910Z,6.30
2023-04-09T14:37:50.888Z,5.82
2023-04-09T14:40:16.883Z,5.72
2023-04-09T14:42:42.941Z,6.07
2023-04-09T14:45:09.484Z,6.28
2023-04-09T14:47:35.595Z,6.38
2023-04-09T14:50:01.960Z,5.70
2023-04-09T14:52:29.847Z,5.88
2023-04-09T14:54:56.607Z,5.65
2023-04-09T14:57:22.576Z,5.65
2023-04-09T14:59:48.513Z,5.30
2023-04-09T15:02:14.997Z,5.65
2023-04-09T15:04:41.131Z,5.90
2023-04-09T15:07:07.701Z,4.82
2023-04-09T15:09:33.747Z,6.15
2023-04-09T15:12:00.947Z,5.22
2023-04-09T15:14:30.956Z,4.88
2023-04-09T15:16:57.047Z,5.90
2023-04-09T15:19:23.500Z,5.97
2023-04-09T15:21:49.545Z,5.22
2023-04-09T15:24:15.659Z,5.40
2023-04-09T15:26:41.754Z,5.88
2023-04-09T15:29:08.054Z,5.57
2023-04-09T15:31:34.251Z,5.53
2023-04-09T15:34:00.516Z,5.07
2023-04-09T15:36:28.696Z,5.70
2023-04-09T15:38:55.450Z,5.40
2023-04-09T15:41:23.383Z,4.95
2023-04-09T15:43:51.031Z,5.18
2023-04-09T15:46:17.710Z,4.55
2023-04-09T15:48:44.923Z,4.40
2023-04-09T15:51:11.488Z,4.82
2023-04-09T15:53:37.498Z,5.50
2023-04-09T15:56:04.811Z,5.15
2023-04-09T15:58:31.477Z,5.53
2023-04-09T16:00:57.735Z,5.40
2023-04-09T16:03:24.273Z,5.30
2023-04-09T16:05:50.516Z,4.85
2023-04-09T16:08:16.677Z,5.35
2023-04-09T16:10:42.648Z,6.18
2023-04-09T16:13:08.752Z,5.30
2023-04-09T16:15:35.371Z,6.45
2023-04-09T16:18:01.828Z,5.07
2023-04-09T16:20:28.833Z,5.40
2023-04-09T16:22:55.089Z,5.25
2023-04-09T16:25:21.171Z,5.03
2023-04-09T16:27:47.085Z,5.13
2023-04-09T16:30:13.108Z,4.85
2023-04-09T16:32:39.026Z,5.50
2023-04-09T16:35:05.760Z,5.40
2023-04-09T16:37:31.812Z,5.28
2023-04-09T16:39:58.268Z,5.05
2023-04-09T16:42:26.140Z,5.60
2023-04-09T16:44:52.404Z,4.82
2023-04-09T16:47:18.353Z,4.65
2023-04-09T16:49:44.260Z,5.28
2023-04-09T16:52:10.443Z,4.95
2023-04-09T16:54:36.445Z,5.00
2023-04-09T16:57:02.466Z,4.60
2023-04-09T16:59:31.772Z,4.93
2023-04-09T17:01:57.747Z,4.95
2023-04-09T17:04:23.760Z,4.90
2023-04-09T17:06:49.777Z,4.18
2023-04-09T17:09:15.818Z,5.25
2023-04-09T17:11:41.822Z,4.70
2023-04-09T17:14:07.791Z,4.60
2023-04-09T17:16:33.806Z,4.65
2023-04-09T17:19:00.108Z,4.47
2023-04-09T17:21:26.702Z,5.28
2023-04-09T17:23:52.722Z,5.00
2023-04-09T17:26:19.955Z,6.95
2023-04-09T17:28:46.325Z,5.20
2023-04-09T17:31:13.926Z,5.13
2023-04-09T17:33:43.442Z,4.60
2023-04-09T17:36:09.980Z,4.50
2023-04-09T17:38:36.014Z,5.28
2023-04-09T17:41:02.130Z,5.38
2023-04-09T17:43:28.043Z,5.10
2023-04-09T17:45:53.956Z,4.57
2023-04-09T17:48:20.015Z,4.80
2023-04-09T17:50:46.049Z,5.00
2023-04-09T17:53:12.053Z,5.15
2023-04-09T17:55:38.184Z,5.78
2023-04-09T17:58:04.303Z,4.95
2023-04-09T18:00:31.111Z,5.25
2023-04-09T18:02:57.503Z,4.60
2023-04-09T18:05:25.244Z,4.60
2023-04-09T18:07:51.761Z,6.55
2023-04-09T18:10:19.254Z,5.32
2023-04-09T18:12:45.294Z,5.38
2023-04-09T18:15:11.276Z,5.68
2023-04-09T18:17:37.260Z,5.43
2023-04-09T18:20:03.488Z,4.97
2023-04-09T18:22:30.065Z,5.40
2023-04-09T18:24:56.030Z,5.35
2023-04-09T18:27:22.121Z,5.05
2023-04-09T18:29:51.140Z,5.45
2023-04-09T18:32:18.850Z,4.85
2023-04-09T18:34:46.387Z,5.78
2023-04-09T18:37:12.588Z,5.60
2023-04-09T18:39:38.604Z,5.70
2023-04-09T18:42:04.598Z,6.22
2023-04-09T18:44:33.109Z,6.03
2023-04-09T18:47:01.338Z,6.10
2023-04-09T18:49:27.478Z,5.85
2023-04-09T18:51:54.007Z,5.78
2023-04-09T18:54:20.282Z,6.63
2023-04-09T18:56:46.699Z,6.25
2023-04-09T18:59:12.663Z,7.60
2023-04-09T19:01:38.755Z,6.68
2023-04-09T19:04:04.974Z,7.25
2023-04-09T19:06:32.765Z,9.15
2023-04-09T19:08:58.705Z,9.55
2023-04-09T19:11:25.423Z,9.80
2023-04-09T19:13:51.879Z,9.98
2023-04-09T19:16:19.140Z,12.05
2023-04-09T19:18:45.060Z,11.63
2023-04-09T19:21:10.995Z,11.25
2023-04-09T19:23:37.076Z,11.48
2023-04-09T19:26:03.358Z,13.40
2023-04-09T19:28:29.424Z,12.70
2023-04-09T19:30:55.832Z,14.35
2023-04-09T19:33:23.910Z,14.80
2023-04-09T19:35:51.066Z,15.63
2023-04-09T19:38:18.158Z,15.63
2023-04-09T19:40:45.460Z,19.27
2023-04-09T19:43:11.754Z,20.20
2023-04-09T19:45:38.282Z,19.48
2023-04-09T19:48:05.434Z,20.35
2023-04-09T19:50:40.564Z,21.85
2023-04-09T19:53:06.588Z,21.65
2023-04-09T19:55:33.326Z,21.48
2023-04-09T19:57:59.402Z,20.80
2023-04-09T20:00:25.928Z,23.00
2023-04-09T20:02:52.835Z,23.30
2023-04-09T20:05:20.373Z,23.92
2023-04-09T20:07:51.309Z,30.38
2023-04-09T20:10:17.532Z,29.17
2023-04-09T20:12:47.651Z,29.77
2023-04-09T20:15:14.666Z,30.55
2023-04-09T20:17:43.781Z,33.10
2023-04-09T20:20:11.105Z,35.08
2023-04-09T20:22:42.316Z,36.58
2023-04-09T20:25:10.782Z,36.45
2023-04-09T20:27:37.436Z,44.88
2023-04-09T20:30:04.375Z,43.28
2023-04-09T20:32:30.383Z,44.90
2023-04-09T20:34:56.434Z,48.28
2023-04-09T20:37:22.430Z,48.45
2023-04-09T20:39:48.400Z,49.08
2023-04-09T20:42:14.850Z,48.88
2023-04-09T20:44:41.007Z,48.50
2023-04-09T20:47:07.324Z,52.05
2023-04-09T20:49:33.501Z,53.38
2023-04-09T20:51:59.999Z,54.60
2023-04-09T20:54:27.238Z,50.38
2023-04-09T20:56:53.872Z,49.83
2023-04-09T20:59:19.961Z,52.13
2023-04-09T21:01:46.131Z,53.30
2023-04-09T21:04:13.271Z,50.88
2023-04-09T21:06:39.851Z,51.38
2023-04-09T21:09:05.869Z,47.72
2023-04-09T21:11:31.916Z,46.92
2023-04-09T21:13:58.269Z,44.50
2023-04-09T21:16:26.479Z,46.65
2023-04-09T21:18:53.002Z,44.85
2023-04-09T21:21:19.241Z,45.40
2023-04-09T21:23:45.350Z,43.70
2023-04-09T21:26:11.291Z,40.22
2023-04-09T21:28:46.616Z,39.92
2023-04-09T21:31:12.596Z,41.35
2023-04-09T21:33:38.513Z,44.03
2023-04-09T21:36:06.470Z,46.58
2023-04-09T21:38:32.516Z,49.00
2023-04-09T21:40:59.141Z,49.67
2023-04-09T21:43:28.512Z,49.42
2023-04-09T21:45:58.066Z,53.22
2023-04-09T21:48:25.031Z,53.95
2023-04-09T21:50:51.134Z,58.08
2023-04-09T21:53:17.616Z,60.55
2023-04-09T21:55:43.639Z,63.97
2023-04-09T21:58:11.202Z,63.05
2023-04-09T22:00:37.654Z,60.90
2023-04-09T22:03:04.377Z,63.35
2023-04-09T22:05:33.723Z,61.00
2023-04-09T22:07:59.990Z,63.42
2023-04-09T22:10:27.122Z,60.42
2023-04-09T22:12:53.736Z,62.70
2023-04-09T22:15:20.695Z,62.15
2023-04-09T22:17:47.093Z,62.40
2023-04-09T22:20:13.466Z,61.90
2023-04-09T22:22:41.369Z,63.53
2023-04-09T22:25:07.762Z,64.47
2023-04-09T22:27:33.928Z,61.92
2023-04-09T22:30:01.771Z,60.67
2023-04-09T22:32:28.136Z,61.03
2023-04-09T22:34:54.151Z,60.53
2023-04-09T22:37:20.302Z,55.90
2023-04-09T22:39:46.487Z,52.92
2023-04-09T22:42:12.832Z,55.85
2023-04-09T22:44:39.114Z,53.38
2023-04-09T22:47:05.567Z,49.42
2023-04-09T22:49:31.957Z,47.10
2023-04-09T22:51:57.836Z,48.45
2023-04-09T22:54:24.475Z,49.88
2023-04-09T22:56:50.861Z,44.97
2023-04-09T22:59:17.450Z,44.10
2023-04-09T23:01:43.543Z,46.25
2023-04-09T23:04:09.766Z,45.35
2023-04-09T23:06:35.766Z,45.60
2023-04-09T23:09:02.208Z,45.47
2023-04-09T23:11:28.489Z,43.83
2023-04-09T23:13:54.394Z,43.40
2023-04-09T23:16:21.274Z,40.75
2023-04-09T23:18:47.225Z,40.22
2023-04-09T23:21:13.154Z,35.38
2023-04-09T23:23:39.293Z,31.98
2023-04-09T23:26:06.560Z,24.98
2023-04-09T23:28:32.804Z,26.42
2023-04-09T23:30:58.721Z,27.92
2023-04-09T23:33:25.601Z,26.65
2023-04-09T23:35:51.673Z,28.48
2023-04-09T23:38:17.628Z,27.55
2023-04-09T23:40:43.609Z,25.42
2023-04-09T23:43:09.656Z,25.02
2023-04-09T23:45:36.190Z,26.05
2023-04-09T23:48:03.328Z,23.42
2023-04-09T23:50:29.715Z,23.85
2023-04-09T23:53:00.336Z,22.75
2023-04-09T23:55:26.579Z,22.27
2023-04-09T23:57:52.490Z,22.90
